sensor_id;sensor_type;location;lat;lon;timestamp;pressure;altitude;pressure_sealevel;temperature;humidity
79586;BME280;69054;50.866;4.636;2023-05-10T00:02:03;100579.59;;;11.13;98.39
79586;BME280;69054;50.866;4.636;2023-05-10T00:04:29;100583.38;;;11.12;98.58
79586;BME280;69054;50.866;4.636;2023-05-10T00:06:54;100588.63;;;11.14;98.80
79586;BME280;69054;50.866;4.636;2023-05-10T00:09:20;100585.06;;;11.13;98.52
79586;BME280;69054;50.866;4.636;2023-05-10T00:11:45;100582.97;;;11.15;98.21
79586;BME280;69054;50.866;4.636;2023-05-10T00:14:11;100576.44;;;11.16;98.28
79586;BME280;69054;50.866;4.636;2023-05-10T00:16:37;100585.28;;;11.18;98.13
79586;BME280;69054;50.866;4.636;2023-05-10T00:19:02;100583.41;;;11.19;98.29
79586;BME280;69054;50.866;4.636;2023-05-10T00:21:28;100587.38;;;11.16;98.12
79586;BME280;69054;50.866;4.636;2023-05-10T00:23:53;100583.63;;;11.17;98.18
79586;BME280;69054;50.866;4.636;2023-05-10T00:26:19;100590.13;;;11.16;98.29
79586;BME280;69054;50.866;4.636;2023-05-10T00:28:45;100589.50;;;11.21;97.81
79586;BME280;69054;50.866;4.636;2023-05-10T00:31:12;100585.75;;;11.22;97.82
79586;BME280;69054;50.866;4.636;2023-05-10T00:33:37;100592.03;;;11.23;97.64
79586;BME280;69054;50.866;4.636;2023-05-10T00:36:03;100596.03;;;11.20;98.08
79586;BME280;69054;50.866;4.636;2023-05-10T00:38:28;100593.28;;;11.20;98.03
79586;BME280;69054;50.866;4.636;2023-05-10T00:40:54;100586.34;;;11.17;97.92
79586;BME280;69054;50.866;4.636;2023-05-10T00:43:19;100591.63;;;11.19;98.21
79586;BME280;69054;50.866;4.636;2023-05-10T00:45:45;100579.19;;;11.16;98.11
79586;BME280;69054;50.866;4.636;2023-05-10T00:48:10;100572.47;;;11.19;98.13
79586;BME280;69054;50.866;4.636;2023-05-10T00:50:36;100572.03;;;11.15;98.10
79586;BME280;69054;50.866;4.636;2023-05-10T00:53:02;100568.66;;;11.20;98.23
79586;BME280;69054;50.866;4.636;2023-05-10T00:55:27;100567.84;;;11.19;98.38
79586;BME280;69054;50.866;4.636;2023-05-10T00:57:53;100568.25;;;11.16;98.24
79586;BME280;69054;50.866;4.636;2023-05-10T01:00:19;100566.13;;;11.18;98.31
79586;BME280;69054;50.866;4.636;2023-05-10T01:02:46;100569.53;;;11.21;98.03
79586;BME280;69054;50.866;4.636;2023-05-10T01:05:12;100568.03;;;11.18;98.01
79586;BME280;69054;50.866;4.636;2023-05-10T01:07:38;100576.88;;;11.20;98.17
79586;BME280;69054;50.866;4.636;2023-05-10T01:10:05;100568.47;;;11.22;97.92
79586;BME280;69054;50.866;4.636;2023-05-10T01:12:31;100569.53;;;11.21;97.58
79586;BME280;69054;50.866;4.636;2023-05-10T01:14:57;100572.88;;;11.16;97.80
79586;BME280;69054;50.866;4.636;2023-05-10T01:17:23;100575.16;;;11.12;97.96
79586;BME280;69054;50.866;4.636;2023-05-10T01:19:49;100576.88;;;11.13;98.36
79586;BME280;69054;50.866;4.636;2023-05-10T01:22:41;100575.63;;;11.16;98.33
79586;BME280;69054;50.866;4.636;2023-05-10T01:31:28;100581.03;;;11.09;98.40
79586;BME280;69054;50.866;4.636;2023-05-10T01:36:32;100575.16;;;11.12;98.08
79586;BME280;69054;50.866;4.636;2023-05-10T01:39:45;100581.09;;;11.16;98.18
79586;BME280;69054;50.866;4.636;2023-05-10T01:42:17;100585.28;;;11.18;98.11
79586;BME280;69054;50.866;4.636;2023-05-10T01:47:38;100574.56;;;11.17;97.92
79586;BME280;69054;50.866;4.636;2023-05-10T01:50:06;100575.22;;;11.19;97.98
79586;BME280;69054;50.866;4.636;2023-05-10T01:52:41;100580.03;;;11.17;97.92
79586;BME280;69054;50.866;4.636;2023-05-10T01:55:13;100576.44;;;11.16;98.02
79586;BME280;69054;50.866;4.636;2023-05-10T01:57:40;100581.09;;;11.16;98.26
79586;BME280;69054;50.866;4.636;2023-05-10T02:00:08;100576.44;;;11.16;98.20
79586;BME280;69054;50.866;4.636;2023-05-10T02:02:39;100577.28;;;11.17;97.85
79586;BME280;69054;50.866;4.636;2023-05-10T02:05:08;100573.09;;;11.14;98.04
79586;BME280;69054;50.866;4.636;2023-05-10T02:07:36;100579.81;;;11.12;98.14
79586;BME280;69054;50.866;4.636;2023-05-10T02:10:04;100575.97;;;11.06;98.36
79586;BME280;69054;50.866;4.636;2023-05-10T02:12:31;100580.41;;;11.07;98.33
79586;BME280;69054;50.866;4.636;2023-05-10T02:14:59;100586.09;;;11.12;98.36
79586;BME280;69054;50.866;4.636;2023-05-10T02:17:27;100596.41;;;11.10;98.44
79586;BME280;69054;50.866;4.636;2023-05-10T02:19:55;100588.41;;;11.09;98.60
79586;BME280;69054;50.866;4.636;2023-05-10T02:22:22;100596.16;;;11.05;98.68
79586;BME280;69054;50.866;4.636;2023-05-10T02:24:49;100594.09;;;11.07;98.80
79586;BME280;69054;50.866;4.636;2023-05-10T02:27:17;100605.25;;;11.12;98.72
79586;BME280;69054;50.866;4.636;2023-05-10T02:29:44;100596.63;;;11.15;98.14
79586;BME280;69054;50.866;4.636;2023-05-10T02:32:10;100607.56;;;11.15;98.43
79586;BME280;69054;50.866;4.636;2023-05-10T02:34:38;100597.09;;;11.19;98.10
79586;BME280;69054;50.866;4.636;2023-05-10T02:37:04;100606.13;;;11.19;98.32
79586;BME280;69054;50.866;4.636;2023-05-10T02:39:31;100609.91;;;11.18;98.30
79586;BME280;69054;50.866;4.636;2023-05-10T02:41:58;100609.06;;;11.18;98.59
79586;BME280;69054;50.866;4.636;2023-05-10T02:44:27;100615.56;;;11.17;98.34
79586;BME280;69054;50.866;4.636;2023-05-10T02:46:56;100614.34;;;11.19;98.02
79586;BME280;69054;50.866;4.636;2023-05-10T02:49:22;100611.38;;;11.21;97.98
79586;BME280;69054;50.866;4.636;2023-05-10T02:51:51;100613.28;;;11.21;97.93
79586;BME280;69054;50.866;4.636;2023-05-10T02:54:24;100612.22;;;11.22;97.60
79586;BME280;69054;50.866;4.636;2023-05-10T02:56:57;100613.91;;;11.23;97.65
79586;BME280;69054;50.866;4.636;2023-05-10T02:59:24;100609.28;;;11.23;97.97
79586;BME280;69054;50.866;4.636;2023-05-10T03:01:50;100611.19;;;11.23;97.41
79586;BME280;69054;50.866;4.636;2023-05-10T03:04:15;100610.56;;;11.21;97.93
79586;BME280;69054;50.866;4.636;2023-05-10T03:06:41;100613.09;;;11.29;97.46
79586;BME280;69054;50.866;4.636;2023-05-10T03:09:07;100607.63;;;11.29;97.06
79586;BME280;69054;50.866;4.636;2023-05-10T03:12:00;100605.94;;;11.28;97.57
79586;BME280;69054;50.866;4.636;2023-05-10T03:17:10;100609.94;;;11.25;97.62
79586;BME280;69054;50.866;4.636;2023-05-10T03:19:43;100613.50;;;11.26;97.15
79586;BME280;69054;50.866;4.636;2023-05-10T03:22:13;100623.63;;;11.25;97.12
79586;BME280;69054;50.866;4.636;2023-05-10T03:24:43;100624.84;;;11.23;97.32
79586;BME280;69054;50.866;4.636;2023-05-10T03:27:10;100636.84;;;11.22;97.14
79586;BME280;69054;50.866;4.636;2023-05-10T03:29:37;100630.34;;;11.23;97.03
79586;BME280;69054;50.866;4.636;2023-05-10T03:32:03;100634.09;;;11.22;97.08
79586;BME280;69054;50.866;4.636;2023-05-10T03:34:30;100638.13;;;11.26;96.72
79586;BME280;69054;50.866;4.636;2023-05-10T03:36:56;100640.44;;;11.22;97.04
79586;BME280;69054;50.866;4.636;2023-05-10T03:39:21;100641.47;;;11.21;96.80
79586;BME280;69054;50.866;4.636;2023-05-10T03:41:47;100653.03;;;11.16;97.49
79586;BME280;69054;50.866;4.636;2023-05-10T03:44:12;100654.06;;;11.15;97.50
79586;BME280;69054;50.866;4.636;2023-05-10T03:46:37;100645.84;;;11.09;98.22
79586;BME280;69054;50.866;4.636;2023-05-10T03:49:03;100643.31;;;11.14;97.70
79586;BME280;69054;50.866;4.636;2023-05-10T03:51:28;100647.97;;;11.13;97.13
79586;BME280;69054;50.866;4.636;2023-05-10T03:53:54;100649.66;;;11.14;97.50
79586;BME280;69054;50.866;4.636;2023-05-10T03:56:20;100655.53;;;11.11;97.68
79586;BME280;69054;50.866;4.636;2023-05-10T03:58:46;100653.41;;;11.07;97.55
79586;BME280;69054;50.866;4.636;2023-05-10T04:01:12;100656.16;;;11.07;96.93
79586;BME280;69054;50.866;4.636;2023-05-10T04:03:37;100658.41;;;11.03;97.55
79586;BME280;69054;50.866;4.636;2023-05-10T04:06:03;100657.78;;;11.01;97.30
79586;BME280;69054;50.866;4.636;2023-05-10T04:08:29;100658.63;;;11.01;97.09
79586;BME280;69054;50.866;4.636;2023-05-10T04:10:55;100659.88;;;10.99;97.49
79586;BME280;69054;50.866;4.636;2023-05-10T04:13:29;100662.38;;;10.94;98.15
79586;BME280;69054;50.866;4.636;2023-05-10T04:15:54;100659.63;;;10.94;98.14
79586;BME280;69054;50.866;4.636;2023-05-10T04:18:20;100661.13;;;10.96;98.29
79586;BME280;69054;50.866;4.636;2023-05-10T04:20:45;100656.28;;;10.92;98.24
79586;BME280;69054;50.866;4.636;2023-05-10T04:23:10;100656.28;;;10.92;98.53
79586;BME280;69054;50.866;4.636;2023-05-10T04:25:36;100662.34;;;10.87;98.62
79586;BME280;69054;50.866;4.636;2023-05-10T04:28:01;100649.50;;;10.88;99.08
79586;BME280;69054;50.866;4.636;2023-05-10T04:30:26;100656.47;;;10.90;98.78
79586;BME280;69054;50.866;4.636;2023-05-10T04:32:54;100652.03;;;10.89;98.78
79586;BME280;69054;50.866;4.636;2023-05-10T04:35:19;100651.19;;;10.89;98.58
79586;BME280;69054;50.866;4.636;2023-05-10T04:37:45;100651.19;;;10.89;98.85
79586;BME280;69054;50.866;4.636;2023-05-10T04:40:10;100665.09;;;10.94;98.36
79586;BME280;69054;50.866;4.636;2023-05-10T04:42:36;100666.75;;;10.88;98.46
79586;BME280;69054;50.866;4.636;2023-05-10T04:45:01;100661.28;;;10.88;98.68
79586;BME280;69054;50.866;4.636;2023-05-10T04:47:27;100664.88;;;10.89;98.84
79586;BME280;69054;50.866;4.636;2023-05-10T04:49:52;100659.41;;;10.89;98.99
79586;BME280;69054;50.866;4.636;2023-05-10T04:52:17;100665.94;;;10.94;98.55
79586;BME280;69054;50.866;4.636;2023-05-10T04:54:43;100661.34;;;10.95;98.66
79586;BME280;69054;50.866;4.636;2023-05-10T04:57:08;100665.13;;;11.00;98.36
79586;BME280;69054;50.866;4.636;2023-05-10T04:59:35;100668.53;;;11.03;98.64
79586;BME280;69054;50.866;4.636;2023-05-10T05:02:01;100670.66;;;11.07;98.59
79586;BME280;69054;50.866;4.636;2023-05-10T05:04:27;100670.25;;;11.10;98.42
79586;BME280;69054;50.866;4.636;2023-05-10T05:06:52;100675.31;;;11.13;98.63
79586;BME280;69054;50.866;4.636;2023-05-10T05:09:17;100679.13;;;11.19;98.35
79586;BME280;69054;50.866;4.636;2023-05-10T05:11:43;100673.88;;;11.24;98.24
79586;BME280;69054;50.866;4.636;2023-05-10T05:14:08;100677.91;;;11.28;98.10
79586;BME280;69054;50.866;4.636;2023-05-10T05:16:33;100680.00;;;11.26;97.86
79586;BME280;69054;50.866;4.636;2023-05-10T05:18:59;100676.81;;;11.23;97.60
79586;BME280;69054;50.866;4.636;2023-05-10T05:21:25;100684.00;;;11.24;97.74
79586;BME280;69054;50.866;4.636;2023-05-10T05:23:52;100685.25;;;11.21;97.73
79586;BME280;69054;50.866;4.636;2023-05-10T05:26:17;100691.75;;;11.20;98.00
79586;BME280;69054;50.866;4.636;2023-05-10T05:28:43;100698.28;;;11.19;97.87
79586;BME280;69054;50.866;4.636;2023-05-10T05:31:08;100698.72;;;11.23;98.01
79586;BME280;69054;50.866;4.636;2023-05-10T05:33:34;100707.34;;;11.26;97.84
79586;BME280;69054;50.866;4.636;2023-05-10T05:36:04;100709.44;;;11.24;97.79
79586;BME280;69054;50.866;4.636;2023-05-10T05:38:30;100714.09;;;11.24;97.75
79586;BME280;69054;50.866;4.636;2023-05-10T05:40:55;100715.31;;;11.21;97.72
79586;BME280;69054;50.866;4.636;2023-05-10T05:43:20;100712.56;;;11.14;97.00
79586;BME280;69054;50.866;4.636;2023-05-10T05:45:46;100720.75;;;11.14;97.10
79586;BME280;69054;50.866;4.636;2023-05-10T05:48:11;100725.16;;;11.15;97.40
79586;BME280;69054;50.866;4.636;2023-05-10T05:50:37;100722.22;;;11.17;97.45
79586;BME280;69054;50.866;4.636;2023-05-10T05:53:02;100724.75;;;11.18;97.92
79586;BME280;69054;50.866;4.636;2023-05-10T05:55:27;100727.50;;;11.18;97.86
79586;BME280;69054;50.866;4.636;2023-05-10T05:57:54;100723.72;;;11.19;97.61
79586;BME280;69054;50.866;4.636;2023-05-10T06:00:20;100722.69;;;11.21;97.91
79586;BME280;69054;50.866;4.636;2023-05-10T06:02:46;100730.50;;;11.24;97.63
79586;BME280;69054;50.866;4.636;2023-05-10T06:05:11;100726.50;;;11.26;97.04
79586;BME280;69054;50.866;4.636;2023-05-10T06:07:39;100731.34;;;11.31;97.20
79586;BME280;69054;50.866;4.636;2023-05-10T06:10:07;100733.09;;;11.39;97.08
79586;BME280;69054;50.866;4.636;2023-05-10T06:12:33;100738.19;;;11.48;97.35
79586;BME280;69054;50.866;4.636;2023-05-10T06:14:58;100742.69;;;11.63;97.05
79586;BME280;69054;50.866;4.636;2023-05-10T06:17:23;100742.09;;;11.74;96.74
79586;BME280;69054;50.866;4.636;2023-05-10T06:19:49;100747.78;;;11.79;95.51
79586;BME280;69054;50.866;4.636;2023-05-10T06:22:15;100750.13;;;11.82;95.28
79586;BME280;69054;50.866;4.636;2023-05-10T06:24:40;100745.72;;;11.88;94.61
79586;BME280;69054;50.866;4.636;2023-05-10T06:27:06;100757.78;;;11.94;94.67
79586;BME280;69054;50.866;4.636;2023-05-10T06:29:32;100751.91;;;11.97;94.60
79586;BME280;69054;50.866;4.636;2023-05-10T06:31:58;100749.38;;;12.02;94.63
79586;BME280;69054;50.866;4.636;2023-05-10T06:34:24;100763.72;;;12.04;94.40
79586;BME280;69054;50.866;4.636;2023-05-10T06:36:49;100762.44;;;12.06;94.69
79586;BME280;69054;50.866;4.636;2023-05-10T06:39:15;100759.72;;;12.06;94.55
79586;BME280;69054;50.866;4.636;2023-05-10T06:41:41;100767.91;;;11.93;93.91
79586;BME280;69054;50.866;4.636;2023-05-10T06:44:06;100764.31;;;11.93;94.00
79586;BME280;69054;50.866;4.636;2023-05-10T06:46:31;100770.38;;;11.88;94.16
79586;BME280;69054;50.866;4.636;2023-05-10T06:48:57;100768.50;;;11.88;94.36
79586;BME280;69054;50.866;4.636;2023-05-10T06:51:22;100768.28;;;11.90;94.22
79586;BME280;69054;50.866;4.636;2023-05-10T06:53:48;100773.56;;;11.92;93.08
79586;BME280;69054;50.866;4.636;2023-05-10T06:56:13;100775.44;;;11.91;93.33
79586;BME280;69054;50.866;4.636;2023-05-10T06:58:39;100784.72;;;11.90;92.84
79586;BME280;69054;50.866;4.636;2023-05-10T07:01:05;100783.16;;;11.74;92.14
79586;BME280;69054;50.866;4.636;2023-05-10T07:03:31;100787.13;;;11.71;92.49
79586;BME280;69054;50.866;4.636;2023-05-10T07:06:03;100789.97;;;11.50;92.61
79586;BME280;69054;50.866;4.636;2023-05-10T07:08:33;100788.44;;;11.34;92.84
79586;BME280;69054;50.866;4.636;2023-05-10T07:11:05;100786.47;;;11.28;93.62
79586;BME280;69054;50.866;4.636;2023-05-10T07:13:32;100796.16;;;11.30;93.87
79586;BME280;69054;50.866;4.636;2023-05-10T07:15:59;100790.50;;;11.32;94.03
79586;BME280;69054;50.866;4.636;2023-05-10T07:18:25;100794.25;;;11.24;93.40
79586;BME280;69054;50.866;4.636;2023-05-10T07:20:50;100790.47;;;11.25;94.37
79586;BME280;69054;50.866;4.636;2023-05-10T07:23:16;100795.34;;;11.30;94.53
79586;BME280;69054;50.866;4.636;2023-05-10T07:25:46;100792.22;;;11.40;93.43
79586;BME280;69054;50.866;4.636;2023-05-10T07:28:13;100797.19;;;11.58;92.90
79586;BME280;69054;50.866;4.636;2023-05-10T07:30:38;100802.91;;;11.63;93.47
79586;BME280;69054;50.866;4.636;2023-05-10T07:33:03;100803.31;;;11.60;92.13
79586;BME280;69054;50.866;4.636;2023-05-10T07:35:29;100811.63;;;11.45;92.06
79586;BME280;69054;50.866;4.636;2023-05-10T07:37:54;100806.28;;;11.30;93.13
79586;BME280;69054;50.866;4.636;2023-05-10T07:40:20;100807.06;;;11.24;93.36
79586;BME280;69054;50.866;4.636;2023-05-10T07:42:45;100817.63;;;11.27;93.83
79586;BME280;69054;50.866;4.636;2023-05-10T07:45:10;100815.53;;;11.29;93.81
79586;BME280;69054;50.866;4.636;2023-05-10T07:47:36;100818.94;;;11.38;93.14
79586;BME280;69054;50.866;4.636;2023-05-10T07:50:01;100819.75;;;11.31;92.28
79586;BME280;69054;50.866;4.636;2023-05-10T07:52:27;100820.94;;;11.22;92.81
79586;BME280;69054;50.866;4.636;2023-05-10T07:54:52;100825.09;;;11.11;92.76
79586;BME280;69054;50.866;4.636;2023-05-10T07:57:18;100825.91;;;11.12;93.59
79586;BME280;69054;50.866;4.636;2023-05-10T07:59:44;100829.56;;;11.19;93.23
79586;BME280;69054;50.866;4.636;2023-05-10T08:02:10;100833.13;;;11.19;93.80
79586;BME280;69054;50.866;4.636;2023-05-10T08:04:35;100832.22;;;11.12;93.49
79586;BME280;69054;50.866;4.636;2023-05-10T08:07:01;100838.09;;;11.09;93.56
79586;BME280;69054;50.866;4.636;2023-05-10T08:09:26;100845.00;;;11.05;94.46
79586;BME280;69054;50.866;4.636;2023-05-10T08:11:51;100845.38;;;11.02;94.02
79586;BME280;69054;50.866;4.636;2023-05-10T08:14:17;100843.03;;;10.99;94.64
79586;BME280;69054;50.866;4.636;2023-05-10T08:16:43;100843.84;;;10.93;94.97
79586;BME280;69054;50.866;4.636;2023-05-10T08:19:08;100845.53;;;10.94;95.10
79586;BME280;69054;50.866;4.636;2023-05-10T08:21:33;100855.88;;;10.98;94.24
79586;BME280;69054;50.866;4.636;2023-05-10T08:23:59;100844.16;;;11.05;94.54
79586;BME280;69054;50.866;4.636;2023-05-10T08:26:24;100852.66;;;11.16;94.58
79586;BME280;69054;50.866;4.636;2023-05-10T08:28:51;100855.03;;;11.26;94.39
79586;BME280;69054;50.866;4.636;2023-05-10T08:31:16;100861.81;;;11.30;93.86
79586;BME280;69054;50.866;4.636;2023-05-10T08:33:43;100858.69;;;11.33;93.48
79586;BME280;69054;50.866;4.636;2023-05-10T08:36:08;100862.03;;;11.29;94.12
79586;BME280;69054;50.866;4.636;2023-05-10T08:38:33;100871.66;;;11.25;93.80
79586;BME280;69054;50.866;4.636;2023-05-10T08:41:01;100870.13;;;11.15;94.11
79586;BME280;69054;50.866;4.636;2023-05-10T08:43:28;100872.66;;;11.17;94.06
79586;BME280;69054;50.866;4.636;2023-05-10T08:45:55;100872.66;;;11.17;94.16
79586;BME280;69054;50.866;4.636;2023-05-10T08:48:23;100867.84;;;11.19;94.71
79586;BME280;69054;50.866;4.636;2023-05-10T08:50:52;100868.53;;;11.28;93.87
79586;BME280;69054;50.866;4.636;2023-05-10T08:53:19;100881.44;;;11.34;93.13
79586;BME280;69054;50.866;4.636;2023-05-10T08:55:46;100877.91;;;11.40;92.72
79586;BME280;69054;50.866;4.636;2023-05-10T08:58:12;100878.13;;;11.45;93.73
79586;BME280;69054;50.866;4.636;2023-05-10T09:00:37;100890.00;;;11.52;93.85
79586;BME280;69054;50.866;4.636;2023-05-10T09:03:04;100880.13;;;11.58;92.91
79586;BME280;69054;50.866;4.636;2023-05-10T09:05:30;100887.09;;;11.61;93.10
79586;BME280;69054;50.866;4.636;2023-05-10T09:07:55;100892.13;;;11.57;92.23
79586;BME280;69054;50.866;4.636;2023-05-10T09:10:21;100891.53;;;11.62;92.95
79586;BME280;69054;50.866;4.636;2023-05-10T09:12:48;100884.22;;;11.69;92.52
79586;BME280;69054;50.866;4.636;2023-05-10T09:15:16;100894.91;;;11.64;92.64
79586;BME280;69054;50.866;4.636;2023-05-10T09:17:44;100897.03;;;11.68;92.57
79586;BME280;69054;50.866;4.636;2023-05-10T09:20:10;100896.03;;;11.76;93.20
79586;BME280;69054;50.866;4.636;2023-05-10T09:22:36;100898.81;;;11.83;93.67
79586;BME280;69054;50.866;4.636;2023-05-10T09:27:35;100900.47;;;11.77;92.45
79586;BME280;69054;50.866;4.636;2023-05-10T09:30:01;100900.91;;;11.81;92.14
79586;BME280;69054;50.866;4.636;2023-05-10T09:32:44;100902.38;;;11.77;92.48
79586;BME280;69054;50.866;4.636;2023-05-10T09:35:12;100906.84;;;11.84;92.19
79586;BME280;69054;50.866;4.636;2023-05-10T09:37:42;100915.66;;;11.80;91.83
79586;BME280;69054;50.866;4.636;2023-05-10T09:40:11;100912.41;;;11.69;92.05
79586;BME280;69054;50.866;4.636;2023-05-10T09:42:38;100916.59;;;11.65;92.45
79586;BME280;69054;50.866;4.636;2023-05-10T09:45:04;100914.53;;;11.67;92.58
79586;BME280;69054;50.866;4.636;2023-05-10T09:47:34;100924.41;;;11.68;93.19
79586;BME280;69054;50.866;4.636;2023-05-10T09:50:00;100926.00;;;11.56;91.94
79586;BME280;69054;50.866;4.636;2023-05-10T09:52:50;100922.66;;;11.61;92.85
79586;BME280;69054;50.866;4.636;2023-05-10T09:55:23;100928.59;;;11.64;92.00
79586;BME280;69054;50.866;4.636;2023-05-10T09:57:58;100928.19;;;11.67;93.21
79586;BME280;69054;50.866;4.636;2023-05-10T10:00:23;100929.47;;;11.71;92.20
79586;BME280;69054;50.866;4.636;2023-05-10T10:02:58;100926.81;;;11.78;92.77
79586;BME280;69054;50.866;4.636;2023-05-10T10:05:34;100933.94;;;11.79;92.36
79586;BME280;69054;50.866;4.636;2023-05-10T10:08:00;100924.09;;;11.85;92.14
79586;BME280;69054;50.866;4.636;2023-05-10T10:10:26;100937.47;;;11.95;91.00
79586;BME280;69054;50.866;4.636;2023-05-10T10:12:53;100940.59;;;11.92;92.67
79586;BME280;69054;50.866;4.636;2023-05-10T10:15:19;100937.38;;;11.88;91.34
79586;BME280;69054;50.866;4.636;2023-05-10T10:17:45;100927.22;;;11.82;92.30
79586;BME280;69054;50.866;4.636;2023-05-10T10:20:11;100938.38;;;11.80;91.77
79586;BME280;69054;50.866;4.636;2023-05-10T10:22:37;100943.25;;;11.85;91.92
79586;BME280;69054;50.866;4.636;2023-05-10T10:25:04;100941.00;;;11.88;92.12
79586;BME280;69054;50.866;4.636;2023-05-10T10:32:59;100935.59;;;12.02;90.75
79586;BME280;69054;50.866;4.636;2023-05-10T10:35:28;100937.38;;;12.16;91.16
79586;BME280;69054;50.866;4.636;2023-05-10T10:37:54;100940.34;;;12.21;90.45
79586;BME280;69054;50.866;4.636;2023-05-10T10:42:52;100940.66;;;12.40;88.80
79586;BME280;69054;50.866;4.636;2023-05-10T10:45:19;100936.22;;;12.39;90.29
79586;BME280;69054;50.866;4.636;2023-05-10T10:47:45;100939.09;;;12.72;90.27
79586;BME280;69054;50.866;4.636;2023-05-10T10:50:10;100943.53;;;12.80;87.06
79586;BME280;69054;50.866;4.636;2023-05-10T10:52:45;100936.72;;;12.56;88.18
79586;BME280;69054;50.866;4.636;2023-05-10T10:55:14;100938.47;;;12.70;89.47
79586;BME280;69054;50.866;4.636;2023-05-10T11:05:34;100927.91;;;12.74;87.73
79586;BME280;69054;50.866;4.636;2023-05-10T11:08:10;100936.75;;;12.76;89.32
79586;BME280;69054;50.866;4.636;2023-05-10T11:10:36;100934.94;;;12.96;88.80
79586;BME280;69054;50.866;4.636;2023-05-10T11:13:02;100939.16;;;13.12;88.94
79586;BME280;69054;50.866;4.636;2023-05-10T11:15:35;100935.22;;;13.42;86.34
79586;BME280;69054;50.866;4.636;2023-05-10T11:21:00;100926.06;;;14.01;84.46
79586;BME280;69054;50.866;4.636;2023-05-10T11:23:32;100932.31;;;14.29;84.95
79586;BME280;69054;50.866;4.636;2023-05-10T11:25:59;100929.88;;;14.59;80.78
79586;BME280;69054;50.866;4.636;2023-05-10T11:28:26;100930.53;;;14.61;82.19
79586;BME280;69054;50.866;4.636;2023-05-10T11:30:52;100929.88;;;14.59;79.38
79586;BME280;69054;50.866;4.636;2023-05-10T11:33:19;100930.72;;;15.05;80.35
79586;BME280;69054;50.866;4.636;2023-05-10T11:35:45;100940.72;;;15.24;80.37
79586;BME280;69054;50.866;4.636;2023-05-10T11:38:12;100931.34;;;15.57;80.60
79586;BME280;69054;50.866;4.636;2023-05-10T11:40:38;100939.84;;;15.56;78.29
79586;BME280;69054;50.866;4.636;2023-05-10T11:43:04;100934.53;;;14.97;80.97
79586;BME280;69054;50.866;4.636;2023-05-10T11:45:34;100934.81;;;14.89;81.14
79586;BME280;69054;50.866;4.636;2023-05-10T11:48:00;100942.38;;;14.62;80.79
79586;BME280;69054;50.866;4.636;2023-05-10T11:50:27;100937.75;;;14.94;81.55
79586;BME280;69054;50.866;4.636;2023-05-10T11:52:56;100944.63;;;15.10;79.22
79586;BME280;69054;50.866;4.636;2023-05-10T11:55:22;100940.56;;;15.19;78.92
79586;BME280;69054;50.866;4.636;2023-05-10T11:57:52;100936.66;;;15.34;78.00
79586;BME280;69054;50.866;4.636;2023-05-10T12:00:18;100939.25;;;15.47;77.90
79586;BME280;69054;50.866;4.636;2023-05-10T12:02:43;100941.97;;;15.54;79.00
79586;BME280;69054;50.866;4.636;2023-05-10T12:05:09;100936.28;;;15.81;75.73
79586;BME280;69054;50.866;4.636;2023-05-10T12:07:35;100936.19;;;15.62;77.98
79586;BME280;69054;50.866;4.636;2023-05-10T12:10:12;100931.41;;;15.51;80.49
79586;BME280;69054;50.866;4.636;2023-05-10T12:12:43;100930.78;;;15.74;78.36
79586;BME280;69054;50.866;4.636;2023-05-10T12:15:17;100934.00;;;15.96;77.50
79586;BME280;69054;50.866;4.636;2023-05-10T12:17:44;100936.66;;;15.84;76.66
79586;BME280;69054;50.866;4.636;2023-05-10T12:22:54;100935.81;;;15.84;78.82
79586;BME280;69054;50.866;4.636;2023-05-10T12:25:21;100936.69;;;15.77;74.97
79586;BME280;69054;50.866;4.636;2023-05-10T12:27:54;100935.00;;;15.76;74.88
79586;BME280;69054;50.866;4.636;2023-05-10T12:30:25;100941.25;;;15.90;76.34
79586;BME280;69054;50.866;4.636;2023-05-10T12:32:52;100937.75;;;16.20;76.25
79586;BME280;69054;50.866;4.636;2023-05-10T12:35:18;100940.19;;;16.47;73.87
79586;BME280;69054;50.866;4.636;2023-05-10T12:37:47;100941.78;;;16.55;73.00
79586;BME280;69054;50.866;4.636;2023-05-10T12:40:13;100945.06;;;16.63;75.76
79586;BME280;69054;50.866;4.636;2023-05-10T12:42:39;100938.13;;;16.42;72.53
79586;BME280;69054;50.866;4.636;2023-05-10T12:45:06;100940.03;;;16.60;70.50
79586;BME280;69054;50.866;4.636;2023-05-10T12:47:32;100944.31;;;16.56;73.87
79586;BME280;69054;50.866;4.636;2023-05-10T12:49:58;100942.09;;;16.46;73.11
79586;BME280;69054;50.866;4.636;2023-05-10T12:52:24;100941.09;;;16.59;73.10
79586;BME280;69054;50.866;4.636;2023-05-10T12:54:50;100942.72;;;16.48;72.70
79586;BME280;69054;50.866;4.636;2023-05-10T12:57:15;100944.03;;;16.46;72.55
79586;BME280;69054;50.866;4.636;2023-05-10T12:59:40;100944.09;;;16.39;73.31
79586;BME280;69054;50.866;4.636;2023-05-10T13:02:07;100953.63;;;16.25;72.66
79586;BME280;69054;50.866;4.636;2023-05-10T13:04:32;100951.91;;;16.05;74.70
79586;BME280;69054;50.866;4.636;2023-05-10T13:06:58;100951.16;;;16.17;73.04
79586;BME280;69054;50.866;4.636;2023-05-10T13:09:27;100945.63;;;15.98;72.34
79586;BME280;69054;50.866;4.636;2023-05-10T13:11:55;100945.84;;;16.15;73.22
79586;BME280;69054;50.866;4.636;2023-05-10T13:14:21;100947.63;;;16.46;73.04
79586;BME280;69054;50.866;4.636;2023-05-10T13:16:47;100951.00;;;16.30;72.82
79586;BME280;69054;50.866;4.636;2023-05-10T13:19:13;100951.22;;;16.28;74.02
79586;BME280;69054;50.866;4.636;2023-05-10T13:21:39;100954.81;;;16.29;73.97
79586;BME280;69054;50.866;4.636;2023-05-10T13:24:06;100953.75;;;16.48;73.72
79586;BME280;69054;50.866;4.636;2023-05-10T13:26:32;100953.75;;;16.48;71.24
79586;BME280;69054;50.866;4.636;2023-05-10T13:28:57;100950.09;;;16.18;72.94